Time;durP1;ratioP1;P1;durP2;ratioP2;P2;SDS_P1;SDS_P2;PMS_P1;PMS_P2;Temp;Humidity;BMP_temperature;BMP_pressure;BME280_temperature;BME280_humidity;BME280_pressure;Samples;Min_cycle;Max_cycle;Signal;HPM_P1;HPM_P2
2022/03/17 00:02:05;;;;;;;59.00;31.65;;;;;;;5.20;50.12;101580.13;4987936;28;20053;-75
2022/03/17 00:04:32;;;;;;;58.85;33.65;;;;;;;5.21;50.13;101582.72;5005638;28;20129;-75
2022/03/17 00:06:59;;;;;;;52.45;31.55;;;;;;;5.24;50.39;101577.38;5008585;28;20066;-75
2022/03/17 00:09:26;;;;;;;57.50;30.05;;;;;;;5.27;50.21;101577.28;5004146;28;20126;-76
2022/03/17 00:11:53;;;;;;;55.33;31.17;;;;;;;5.23;50.28;101580.03;4987928;28;20042;-73
2022/03/17 00:14:20;;;;;;;57.88;32.58;;;;;;;5.14;50.40;101581.16;4988525;28;20077;-73
2022/03/17 00:16:50;;;;;;;54.47;32.13;;;;;;;5.03;50.42;101578.00;4987491;28;20046;-71
2022/03/17 00:19:16;;;;;;;55.40;29.52;;;;;;;4.93;50.32;101577.38;4986500;28;20081;-74
2022/03/17 00:21:43;;;;;;;53.70;27.73;;;;;;;4.82;50.38;101582.06;4988440;28;20048;-75
2022/03/17 00:24:10;;;;;;;47.30;27.23;;;;;;;4.71;50.60;101580.59;4987978;28;20046;-72
2022/03/17 00:26:38;;;;;;;56.03;28.83;;;;;;;4.64;50.62;101576.41;4986360;28;20061;-73
2022/03/17 00:29:07;;;;;;;52.40;30.23;;;;;;;4.58;50.95;101581.81;4985811;28;20053;-75
2022/03/17 00:31:34;;;;;;;50.28;28.65;;;;;;;4.61;50.88;101579.13;4986975;28;20471;-73
2022/03/17 00:34:02;;;;;;;59.70;31.27;;;;;;;4.64;50.79;101580.78;4985872;28;20053;-75
2022/03/17 00:36:29;;;;;;;51.67;28.52;;;;;;;4.67;50.71;101576.34;4987697;28;20057;-73
2022/03/17 00:38:57;;;;;;;54.28;29.63;;;;;;;4.69;50.72;101576.31;4986871;28;20133;-74
2022/03/17 00:41:25;;;;;;;52.55;27.67;;;;;;;4.67;50.76;101571.09;4987754;28;20077;-75
2022/03/17 00:43:52;;;;;;;53.22;28.25;;;;;;;4.77;50.78;101582.16;4988529;28;20046;-74
2022/03/17 00:46:20;;;;;;;55.50;32.75;;;;;;;4.78;50.93;101579.50;4988457;28;20056;-71
2022/03/17 00:48:47;;;;;;;52.40;28.58;;;;;;;4.84;50.77;101590.72;4986948;28;20054;-72
2022/03/17 00:51:15;;;;;;;53.38;29.40;;;;;;;4.86;50.81;101588.91;4987989;28;20141;-72
2022/03/17 00:53:42;;;;;;;51.72;30.42;;;;;;;4.83;50.71;101592.50;4986648;28;20073;-73
2022/03/17 00:56:09;;;;;;;47.50;28.70;;;;;;;4.85;50.77;101595.06;4986822;28;20054;-74
2022/03/17 00:58:37;;;;;;;55.30;30.73;;;;;;;4.84;50.90;101591.56;4984686;28;20094;-74
2022/03/17 01:01:04;;;;;;;48.63;29.80;;;;;;;4.83;50.84;101589.88;4986250;28;20057;-71
2022/03/17 01:03:31;;;;;;;56.58;30.42;;;;;;;4.78;50.93;101589.97;4986432;28;20086;-72
2022/03/17 01:05:59;;;;;;;51.15;28.65;;;;;;;4.74;51.03;101595.38;4986495;28;20424;-74
2022/03/17 01:08:29;;;;;;;55.35;30.30;;;;;;;4.66;51.02;101592.06;4985866;28;20054;-74
2022/03/17 01:10:55;;;;;;;45.20;26.77;;;;;;;4.60;51.01;101598.34;4992960;28;20050;-72
2022/03/17 01:13:23;;;;;;;51.63;28.48;;;;;;;4.54;50.93;101606.34;4986393;28;20050;-72
2022/03/17 01:15:50;;;;;;;43.35;26.90;;;;;;;4.44;51.02;101610.09;4982247;28;20056;-72
2022/03/17 01:18:17;;;;;;;47.88;29.48;;;;;;;4.38;51.10;101611.97;4985970;28;20046;-72
2022/03/17 01:20:44;;;;;;;53.35;30.60;;;;;;;4.34;51.33;101614.69;4985827;28;20072;-73
2022/03/17 01:23:11;;;;;;;56.55;32.53;;;;;;;4.26;51.45;101612.25;4985601;28;20417;-72
2022/03/17 01:25:40;;;;;;;52.60;30.73;;;;;;;4.27;51.55;101618.34;4986133;28;20073;-72
2022/03/17 01:28:07;;;;;;;52.92;30.80;;;;;;;4.17;51.62;101620.34;4983686;28;20042;-71
2022/03/17 01:30:35;;;;;;;56.45;31.38;;;;;;;4.16;51.63;101615.97;4984668;28;20144;-72
2022/03/17 01:33:02;;;;;;;57.08;34.95;;;;;;;4.13;52.09;101616.94;4986922;28;20094;-73
2022/03/17 01:35:29;;;;;;;55.63;35.80;;;;;;;4.13;52.08;101616.06;4985391;28;20050;-72
2022/03/17 01:37:56;;;;;;;52.67;34.92;;;;;;;4.10;52.31;101617.00;4984626;28;20058;-71
2022/03/17 01:40:23;;;;;;;57.42;34.13;;;;;;;4.08;52.43;101613.56;4985806;28;20129;-71
2022/03/17 01:42:52;;;;;;;51.45;32.40;;;;;;;4.06;52.35;101615.34;4985078;28;20048;-73
2022/03/17 01:45:19;;;;;;;50.33;28.17;;;;;;;4.02;52.01;101614.56;4983905;28;20149;-73
2022/03/17 01:47:46;;;;;;;49.58;29.65;;;;;;;3.97;52.29;101618.19;4984899;28;20145;-74
2022/03/17 01:50:15;;;;;;;51.03;30.70;;;;;;;3.94;51.99;101619.13;4983733;28;20527;-72
2022/03/17 01:52:42;;;;;;;60.08;31.67;;;;;;;3.87;52.25;101627.13;4984644;28;20132;-73
2022/03/17 01:55:12;;;;;;;58.40;34.00;;;;;;;3.78;52.45;101626.44;4985278;28;20085;-73
2022/03/17 01:57:40;;;;;;;56.28;32.00;;;;;;;3.76;52.80;101622.13;4983833;28;20109;-74
2022/03/17 02:00:13;;;;;;;53.83;33.67;;;;;;;3.74;52.62;101619.56;4984733;28;20104;-74
2022/03/17 02:02:41;;;;;;;55.72;32.70;;;;;;;3.80;52.73;101629.03;4985410;28;20046;-72
2022/03/17 02:05:08;;;;;;;54.92;31.05;;;;;;;3.81;52.52;101625.50;4984243;28;20057;-76
2022/03/17 02:07:35;;;;;;;65.88;33.25;;;;;;;3.82;52.38;101628.09;4986388;28;20049;-73
2022/03/17 02:10:02;;;;;;;59.25;32.38;;;;;;;3.83;52.66;101628.94;4984899;28;20050;-73
2022/03/17 02:15:15;;;;;;;52.17;27.95;;;;;;;3.83;52.52;101623.72;4984944;28;20331;-76
2022/03/17 02:17:43;;;;;;;54.65;30.45;;;;;;;3.82;52.54;101627.25;4985377;28;20142;-72
2022/03/17 02:20:12;;;;;;;60.33;31.73;;;;;;;3.81;52.52;101621.13;4984772;28;20650;-74
2022/03/17 02:22:43;;;;;;;56.13;29.50;;;;;;;3.84;52.71;101625.44;4984957;28;20046;-72
2022/03/17 02:28:03;;;;;;;63.10;30.80;;;;;;;3.88;52.70;101634.94;4940827;29;20051;-74
2022/03/17 02:30:33;;;;;;;57.10;31.17;;;;;;;3.89;52.55;101633.16;4944172;29;20051;-73
2022/03/17 02:33:02;;;;;;;68.05;32.63;;;;;;;3.90;52.68;101633.16;4942444;29;20431;-73
2022/03/17 02:35:32;;;;;;;58.78;33.92;;;;;;;3.88;52.89;101629.72;4942025;29;20051;-72
2022/03/17 02:37:59;;;;;;;61.35;32.08;;;;;;;3.88;52.95;101632.31;4943282;29;20051;-71
2022/03/17 02:40:28;;;;;;;54.63;30.67;;;;;;;3.87;52.92;101637.56;4927473;29;20051;-71
2022/03/17 02:42:55;;;;;;;56.90;30.13;;;;;;;3.87;53.07;101640.19;4942848;29;20059;-72
2022/03/17 02:45:23;;;;;;;47.08;31.60;;;;;;;3.86;53.17;101644.56;4943576;29;20130;-71
2022/03/17 02:47:51;;;;;;;55.00;30.85;;;;;;;3.80;52.94;101645.56;4943317;29;20728;-72
2022/03/17 02:50:19;;;;;;;55.08;30.92;;;;;;;3.72;53.18;101646.63;4942756;29;20724;-71
2022/03/17 02:52:46;;;;;;;59.13;34.60;;;;;;;3.66;53.50;101641.53;4943961;29;20059;-72
2022/03/17 02:55:14;;;;;;;60.28;35.00;;;;;;;3.62;53.51;101641.59;4941194;29;20047;-72
2022/03/17 02:57:44;;;;;;;65.32;37.17;;;;;;;3.61;53.53;101646.84;4941187;29;20130;-72
2022/03/17 03:00:13;;;;;;;68.15;33.53;;;;;;;3.58;53.40;101653.03;4944120;29;20058;-70
2022/03/17 03:02:40;;;;;;;57.35;34.30;;;;;;;3.57;53.58;101660.88;4942582;29;20504;-73
2022/03/17 03:05:08;;;;;;;57.78;34.40;;;;;;;3.56;53.58;101665.22;4971215;28;20050;-71
2022/03/17 03:07:36;;;;;;;51.88;31.52;;;;;;;3.55;53.66;101681.81;4985618;28;20463;-73
2022/03/17 03:10:03;;;;;;;58.17;33.20;;;;;;;3.54;53.48;101677.47;4984228;28;20046;-71
2022/03/17 03:12:30;;;;;;;55.85;29.08;;;;;;;3.51;53.67;101680.16;4984661;28;20121;-71
2022/03/17 03:14:59;;;;;;;54.45;31.60;;;;;;;3.46;53.44;101682.00;4985448;28;20138;-71
2022/03/17 03:17:26;;;;;;;50.60;30.23;;;;;;;3.37;53.45;101690.03;4983408;28;20085;-72
2022/03/17 03:19:53;;;;;;;57.00;30.98;;;;;;;3.29;53.70;101689.28;4985406;28;20097;-72
2022/03/17 03:22:20;;;;;;;61.78;31.38;;;;;;;3.22;53.67;101693.75;4986234;28;20432;-71
2022/03/17 03:24:47;;;;;;;59.25;33.17;;;;;;;3.17;53.69;101701.69;4986486;28;20053;-71
2022/03/17 03:27:15;;;;;;;54.35;32.25;;;;;;;3.14;53.70;101706.13;4988998;28;20105;-71
2022/03/17 03:29:42;;;;;;;56.00;32.58;;;;;;;3.08;53.80;101714.03;4986578;28;20046;-73
2022/03/17 03:32:11;;;;;;;58.38;33.40;;;;;;;3.03;53.95;101709.78;4987225;28;20046;-73
2022/03/17 03:34:38;;;;;;;60.50;32.53;;;;;;;3.01;53.87;101705.47;4988603;28;20046;-73
2022/03/17 03:39:50;;;;;;;53.38;29.52;;;;;;;3.01;53.83;101715.91;4992307;28;20610;-73
2022/03/17 03:42:17;;;;;;;61.05;33.00;;;;;;;2.95;54.08;101721.22;4996408;28;20057;-72
2022/03/17 03:44:44;;;;;;;54.33;32.25;;;;;;;2.90;53.80;101716.09;4998270;28;20133;-73
2022/03/17 03:47:13;;;;;;;52.78;29.98;;;;;;;2.85;54.13;101725.75;4995866;28;20115;-73
2022/03/17 03:49:42;;;;;;;58.72;30.23;;;;;;;2.79;54.27;101721.50;4998843;28;20178;-76
2022/03/17 03:52:13;;;;;;;57.00;30.17;;;;;;;2.72;54.35;101725.09;4997773;28;20077;-72
2022/03/17 03:54:41;;;;;;;56.10;32.63;;;;;;;2.67;54.36;101719.09;4997302;28;20134;-71
2022/03/17 03:57:08;;;;;;;57.85;30.77;;;;;;;2.63;54.18;101714.81;4993688;28;20117;-71
2022/03/17 03:59:35;;;;;;;55.78;31.15;;;;;;;2.66;54.37;101722.56;4986732;28;20345;-72
2022/03/17 04:02:04;;;;;;;65.53;34.00;;;;;;;2.68;54.44;101723.41;4989093;28;20050;-73
2022/03/17 04:04:35;;;;;;;65.95;34.65;;;;;;;2.70;54.46;101724.22;4990155;28;20054;-72
2022/03/17 04:07:03;;;;;;;62.58;33.28;;;;;;;2.75;54.39;101725.03;4988761;28;20072;-72
2022/03/17 04:09:34;;;;;;;63.20;32.33;;;;;;;2.76;54.42;101728.53;4989671;28;20056;-72
2022/03/17 04:12:01;;;;;;;66.20;32.63;;;;;;;2.77;54.54;101733.69;4989259;28;20096;-71
2022/03/17 04:14:29;;;;;;;58.13;34.55;;;;;;;2.74;54.48;101733.75;4988048;28;20050;-72
2022/03/17 04:16:57;;;;;;;61.50;34.20;;;;;;;2.74;54.61;101738.09;4987855;28;20054;-72
2022/03/17 04:19:24;;;;;;;61.78;34.92;;;;;;;2.75;54.82;101738.06;4988819;28;20517;-74
2022/03/17 04:21:53;;;;;;;50.38;31.48;;;;;;;2.74;54.80;101738.09;4988108;28;20058;-73
2022/03/17 04:24:21;;;;;;;59.08;33.35;;;;;;;2.71;54.66;101739.00;4989612;28;20066;-71
2022/03/17 04:26:48;;;;;;;56.95;33.88;;;;;;;2.71;54.71;101744.22;4990592;28;20046;-73
2022/03/17 04:29:16;;;;;;;65.22;34.90;;;;;;;2.68;55.10;101744.28;4987323;28;20137;-73
2022/03/17 04:31:46;;;;;;;62.10;32.95;;;;;;;2.63;54.98;101746.13;4988205;28;20165;-72
2022/03/17 04:34:14;;;;;;;69.75;37.58;;;;;;;2.53;54.98;101750.59;4987516;28;20058;-70
2022/03/17 04:36:41;;;;;;;66.60;32.63;;;;;;;2.46;54.88;101749.81;4986438;28;20359;-73
2022/03/17 04:39:11;;;;;;;66.85;36.13;;;;;;;2.39;55.02;101750.78;4987262;28;20046;-73
2022/03/17 04:41:39;;;;;;;70.30;37.00;;;;;;;2.35;54.92;101759.56;4985639;28;20054;-73
2022/03/17 04:44:07;;;;;;;75.85;40.80;;;;;;;2.31;55.15;101764.84;4985823;28;20073;-74
2022/03/17 04:46:35;;;;;;;64.78;36.08;;;;;;;2.28;55.13;101765.72;4987236;28;20325;-71
2022/03/17 04:49:02;;;;;;;71.80;36.35;;;;;;;2.25;55.25;101756.22;4985285;28;20054;-75
2022/03/17 04:51:29;;;;;;;59.75;35.92;;;;;;;2.20;55.05;101757.16;4985445;28;20133;-74
2022/03/17 04:53:56;;;;;;;66.82;33.90;;;;;;;2.14;55.01;101760.69;4985612;28;20096;-73
2022/03/17 04:56:25;;;;;;;63.35;35.63;;;;;;;2.12;55.09;101762.47;4985702;28;20054;-71
2022/03/17 04:58:52;;;;;;;62.08;33.67;;;;;;;2.13;55.20;101761.59;4984266;28;20141;-71
2022/03/17 05:01:19;;;;;;;61.47;33.42;;;;;;;2.13;55.11;101765.97;4991349;28;20196;-74
2022/03/17 05:03:47;;;;;;;58.38;32.08;;;;;;;2.14;55.12;101770.28;4986230;28;20046;-72
2022/03/17 05:06:15;;;;;;;61.45;31.60;;;;;;;2.14;55.42;101770.28;4985986;28;20054;-74
2022/03/17 05:08:42;;;;;;;55.80;31.80;;;;;;;2.16;55.36;101773.72;4986629;28;20051;-71
2022/03/17 05:11:10;;;;;;;58.95;31.83;;;;;;;2.19;55.22;101778.91;4987240;28;20068;-74
2022/03/17 05:13:40;;;;;;;60.10;31.83;;;;;;;2.23;55.27;101771.03;4986961;28;20050;-73
2022/03/17 05:16:09;;;;;;;61.67;34.13;;;;;;;2.26;55.24;101772.72;4991105;28;20062;-72
2022/03/17 05:18:36;;;;;;;56.38;30.63;;;;;;;2.27;55.21;101777.91;5004910;28;20053;-74
2022/03/17 05:21:04;;;;;;;69.15;39.33;;;;;;;2.32;55.33;101779.59;5005659;28;20046;-73
2022/03/17 05:23:31;;;;;;;65.68;36.00;;;;;;;2.36;55.57;101782.16;4990607;28;20138;-76
2022/03/17 05:25:59;;;;;;;67.38;37.22;;;;;;;2.44;55.41;101782.88;4978910;28;20038;-73
2022/03/17 05:28:26;;;;;;;70.15;41.58;;;;;;;2.48;55.52;101783.69;4965234;28;20061;-76
2022/03/17 05:30:55;;;;;;;68.30;38.92;;;;;;;2.54;55.84;101788.84;4966330;28;20418;-73
2022/03/17 05:33:22;;;;;;;59.55;37.55;;;;;;;2.59;55.63;101786.16;4967718;28;20053;-74
2022/03/17 05:35:49;;;;;;;73.45;41.50;;;;;;;2.64;55.55;101779.13;4966085;28;20051;-70
2022/03/17 05:38:16;;;;;;;69.95;38.72;;;;;;;2.70;55.91;101788.59;4965141;28;20162;-72
2022/03/17 05:40:44;;;;;;;71.85;41.78;;;;;;;2.77;55.57;101788.47;4966322;28;20244;-71
2022/03/17 05:43:11;;;;;;;77.97;43.75;;;;;;;2.78;55.81;101787.59;4966794;28;20439;-72
2022/03/17 05:45:41;;;;;;;89.28;46.17;;;;;;;2.83;55.93;101783.19;4963948;28;20073;-72
2022/03/17 05:48:10;;;;;;;75.60;44.72;;;;;;;2.91;55.96;101792.63;4966251;28;20503;-72
2022/03/17 05:50:38;;;;;;;81.72;43.35;;;;;;;2.98;55.81;101795.13;4964627;28;20133;-74
2022/03/17 05:53:06;;;;;;;71.40;40.33;;;;;;;3.06;55.62;101798.47;4964464;28;20068;-74
2022/03/17 05:55:33;;;;;;;68.13;37.63;;;;;;;3.17;55.62;101805.25;4965010;28;20410;-74
2022/03/17 05:58:00;;;;;;;63.13;39.17;;;;;;;3.24;55.83;101810.38;4964522;28;20071;-70
2022/03/17 06:00:28;;;;;;;74.35;38.67;;;;;;;3.32;55.58;101809.38;4974020;28;20105;-72
2022/03/17 06:02:57;;;;;;;66.78;38.88;;;;;;;3.42;55.79;101813.53;4973047;28;20146;-74
2022/03/17 06:05:29;;;;;;;67.30;40.38;;;;;;;3.50;55.61;101819.50;4974176;28;20050;-74
2022/03/17 06:08:00;;;;;;;71.97;40.97;;;;;;;3.59;55.46;101814.09;4969922;28;20326;-72
2022/03/17 06:10:28;;;;;;;68.68;38.28;;;;;;;3.66;55.63;101812.22;4965391;28;20046;-69
2022/03/17 06:12:57;;;;;;;56.13;35.90;;;;;;;3.77;55.58;101812.03;4965584;28;20138;-72
2022/03/17 06:15:25;;;;;;;71.28;42.88;;;;;;;3.86;55.58;101816.22;4964353;28;20050;-72
2022/03/17 06:17:53;;;;;;;67.88;45.17;;;;;;;3.92;55.90;101819.56;4965072;28;20051;-71
2022/03/17 06:20:22;;;;;;;69.72;42.15;;;;;;;3.99;55.81;101815.94;4963243;28;20051;-71
2022/03/17 06:22:52;;;;;;;70.35;40.75;;;;;;;4.09;55.74;101813.13;4963852;28;20046;-71
2022/03/17 06:25:21;;;;;;;65.95;39.85;;;;;;;4.20;55.82;101813.78;4966899;28;20058;-76
2022/03/17 06:27:48;;;;;;;71.97;46.28;;;;;;;4.26;55.71;101818.03;4962001;28;20332;-72
2022/03/17 06:30:18;;;;;;;69.72;40.60;;;;;;;4.35;55.83;101817.81;4963509;28;20055;-71
2022/03/17 06:32:46;;;;;;;55.50;38.50;;;;;;;4.46;55.73;101818.44;4964370;28;20054;-72
2022/03/17 06:35:17;;;;;;;71.15;43.53;;;;;;;4.56;55.70;101833.06;4962765;28;20055;-74
2022/03/17 06:37:45;;;;;;;74.07;44.63;;;;;;;4.68;55.50;101831.06;4982072;28;20050;-72
2022/03/17 06:40:14;;;;;;;72.82;45.15;;;;;;;4.81;55.60;101836.88;4982027;28;20052;-73
2022/03/17 06:42:42;;;;;;;76.28;49.03;;;;;;;4.92;55.34;101843.59;4983365;28;20050;-74
2022/03/17 06:45:10;;;;;;;67.70;41.47;;;;;;;5.01;55.36;101841.66;4983123;28;20116;-75
2022/03/17 06:47:37;;;;;;;68.72;41.33;;;;;;;5.11;55.00;101844.03;4982207;28;20054;-72
2022/03/17 06:50:06;;;;;;;67.60;45.30;;;;;;;5.19;54.78;101849.06;4981450;28;20141;-71
2022/03/17 06:52:33;;;;;;;64.63;40.75;;;;;;;5.29;54.69;101849.69;4982729;28;20134;-74
2022/03/17 06:55:00;;;;;;;64.78;36.60;;;;;;;5.37;54.79;101850.38;4981323;28;20125;-73
2022/03/17 06:57:28;;;;;;;63.83;37.75;;;;;;;5.50;54.52;101858.78;4983699;28;20644;-71
2022/03/17 06:59:55;;;;;;;63.78;39.35;;;;;;;5.65;54.21;101860.13;4983101;28;20113;-73
2022/03/17 07:02:30;;;;;;;54.78;34.92;;;;;;;5.72;54.03;101862.53;4985769;28;20129;-73
2022/03/17 07:04:56;;;;;;;63.95;37.50;;;;;;;5.83;53.97;101859.63;4986670;28;20490;-72
2022/03/17 07:07:24;;;;;;;56.50;36.13;;;;;;;5.98;53.77;101857.53;4986318;28;20049;-74
2022/03/17 07:09:51;;;;;;;62.97;36.45;;;;;;;6.10;53.58;101862.44;4988371;28;20487;-72
2022/03/17 07:12:18;;;;;;;59.25;39.60;;;;;;;6.19;53.48;101862.19;4991993;28;20118;-73
2022/03/17 07:14:46;;;;;;;59.63;34.67;;;;;;;6.27;53.31;101859.38;4985451;28;20081;-74
2022/03/17 07:17:14;;;;;;;67.78;37.75;;;;;;;6.34;53.21;101867.91;4987692;28;20060;-75
2022/03/17 07:19:43;;;;;;;65.57;36.13;;;;;;;6.45;52.93;101865.84;4990355;28;20054;-72
2022/03/17 07:22:10;;;;;;;60.72;39.88;;;;;;;6.52;52.86;101867.38;4992042;28;20047;-74
2022/03/17 07:24:37;;;;;;;62.42;41.78;;;;;;;6.66;52.60;101873.06;4987512;28;20137;-72
2022/03/17 07:27:04;;;;;;;58.45;33.75;;;;;;;6.78;52.38;101866.56;4985784;28;20046;-72
2022/03/17 07:29:31;;;;;;;61.80;36.90;;;;;;;6.89;52.13;101868.88;4984203;28;20046;-72
2022/03/17 07:31:59;;;;;;;56.90;35.10;;;;;;;6.98;51.98;101863.31;4985390;28;20056;-75
2022/03/17 07:34:26;;;;;;;58.38;36.05;;;;;;;7.09;51.73;101870.88;4987371;28;20056;-73
2022/03/17 07:36:53;;;;;;;55.88;36.17;;;;;;;7.18;51.56;101867.09;4991952;28;20074;-73
2022/03/17 07:39:20;;;;;;;68.60;44.33;;;;;;;7.25;51.15;101869.44;4986480;28;20072;-75
2022/03/17 07:41:47;;;;;;;61.63;40.45;;;;;;;7.37;51.14;101869.97;4987974;28;20528;-73
2022/03/17 07:44:15;;;;;;;50.72;37.22;;;;;;;7.51;50.68;101873.00;4985959;28;20445;-72
2022/03/17 07:46:42;;;;;;;60.72;39.17;;;;;;;7.66;50.43;101871.63;4985926;28;20046;-73
2022/03/17 07:49:10;;;;;;;53.70;32.15;;;;;;;7.81;50.25;101876.38;4984903;28;20058;-74
2022/03/17 07:51:39;;;;;;;55.15;31.60;;;;;;;7.99;49.89;101860.81;4983738;28;20705;-72
2022/03/17 07:54:07;;;;;;;55.05;35.60;;;;;;;8.03;49.48;101860.66;4985101;28;20046;-74
2022/03/17 07:56:35;;;;;;;52.33;30.60;;;;;;;8.14;49.43;101862.03;4983368;28;20502;-74
2022/03/17 07:59:03;;;;;;;52.92;31.70;;;;;;;8.27;49.02;101868.56;4980914;28;20109;-72
2022/03/17 08:01:30;;;;;;;51.20;30.70;;;;;;;8.45;48.79;101867.06;4984412;28;20057;-72
2022/03/17 08:03:57;;;;;;;58.53;36.72;;;;;;;8.59;48.43;101872.66;4983083;28;20053;-72
2022/03/17 08:06:26;;;;;;;60.00;38.83;;;;;;;8.80;48.29;101880.66;4984497;28;20062;-72
2022/03/17 08:08:53;;;;;;;45.90;32.75;;;;;;;8.96;47.85;101881.75;4984330;28;20058;-73
2022/03/17 08:11:23;;;;;;;43.90;29.08;;;;;;;9.14;47.56;101880.16;4967775;28;20042;-75
2022/03/17 08:13:51;;;;;;;48.72;32.58;;;;;;;9.26;47.17;101877.97;4985928;28;20050;-73
2022/03/17 08:16:18;;;;;;;53.38;34.33;;;;;;;9.34;46.63;101881.97;4985240;28;20054;-72
2022/03/17 08:18:45;;;;;;;47.50;30.75;;;;;;;9.46;46.14;101890.34;4983917;28;20149;-73
2022/03/17 08:21:13;;;;;;;46.05;29.48;;;;;;;9.54;46.07;101888.22;4984332;28;20078;-71
2022/03/17 08:23:42;;;;;;;37.00;24.38;;;;;;;9.57;45.83;101890.72;4983767;28;20046;-73
2022/03/17 08:26:09;;;;;;;40.88;24.85;;;;;;;9.60;45.69;101900.28;4982229;28;20049;-71
2022/03/17 08:28:36;;;;;;;49.53;33.92;;;;;;;9.67;45.50;101902.63;4981212;28;20129;-72
2022/03/17 08:31:03;;;;;;;46.45;31.63;;;;;;;9.82;45.31;101894.97;4984112;28;20056;-74
2022/03/17 08:33:30;;;;;;;49.00;28.13;;;;;;;9.97;45.08;101906.63;4982813;28;20046;-74
2022/03/17 08:35:57;;;;;;;40.35;26.77;;;;;;;10.09;44.71;101908.75;4983776;28;20052;-72
2022/03/17 08:38:24;;;;;;;54.17;38.45;;;;;;;10.22;44.36;101912.56;4982910;28;20053;-72
2022/03/17 08:40:52;;;;;;;46.75;30.35;;;;;;;10.41;43.85;101898.56;4981309;28;20689;-73
2022/03/17 08:43:19;;;;;;;39.38;27.42;;;;;;;10.54;43.69;101902.34;4982831;28;20778;-73
2022/03/17 08:51:15;;;;;;;47.03;28.55;;;;;;;10.93;42.94;101901.44;4985046;28;20193;-74
2022/03/17 08:53:42;;;;;;;34.33;22.20;;;;;;;11.01;42.34;101898.41;4983527;28;20125;-73
2022/03/17 08:56:12;;;;;;;33.13;23.42;;;;;;;11.14;42.32;101899.53;4966178;28;20042;-73
2022/03/17 08:58:40;;;;;;;35.17;22.65;;;;;;;11.32;41.74;101904.84;4976467;28;20759;-72
2022/03/17 09:01:07;;;;;;;38.63;24.80;;;;;;;11.41;41.89;101901.75;4962800;28;20681;-71
2022/03/17 09:03:35;;;;;;;41.67;28.45;;;;;;;11.44;41.25;101902.44;4963287;28;20130;-73
2022/03/17 09:06:02;;;;;;;35.63;24.38;;;;;;;11.48;40.89;101909.28;4964164;28;20046;-73
2022/03/17 09:08:30;;;;;;;39.88;26.02;;;;;;;11.58;40.78;101911.50;4962568;28;20772;-75
2022/03/17 09:10:57;;;;;;;44.10;25.75;;;;;;;11.66;40.50;101904.03;4967856;28;20123;-75
2022/03/17 09:13:28;;;;;;;41.20;22.33;;;;;;;11.75;40.24;101911.50;4968591;28;20106;-70
2022/03/17 09:15:56;;;;;;;39.75;27.27;;;;;;;11.83;39.83;101903.19;4968305;28;20054;-70
2022/03/17 09:18:24;;;;;;;32.47;21.92;;;;;;;11.90;39.73;101909.88;4968054;28;20055;-73
2022/03/17 09:20:51;;;;;;;35.67;22.58;;;;;;;12.00;39.25;101923.50;4968257;28;20130;-71
2022/03/17 09:23:18;;;;;;;30.38;19.48;;;;;;;12.07;39.23;101911.66;4966652;28;20153;-72
2022/03/17 09:25:46;;;;;;;42.53;25.70;;;;;;;12.10;39.18;101910.63;4963370;28;20134;-73
2022/03/17 09:28:13;;;;;;;34.42;22.95;;;;;;;12.21;39.03;101917.09;4961968;28;20503;-72
2022/03/17 09:30:42;;;;;;;33.30;21.27;;;;;;;12.39;38.83;101919.72;4962521;28;20051;-75
2022/03/17 09:33:09;;;;;;;36.33;23.77;;;;;;;12.58;38.24;101927.50;4963449;28;20129;-73
2022/03/17 09:35:36;;;;;;;34.53;21.90;;;;;;;12.60;37.97;101921.19;4962846;28;20482;-73
2022/03/17 09:38:05;;;;;;;35.00;25.38;;;;;;;12.55;37.93;101917.06;4961733;28;20055;-71
2022/03/17 09:40:32;;;;;;;31.90;22.60;;;;;;;12.43;37.67;101911.50;4962455;28;20125;-73
2022/03/17 09:45:49;;;;;;;37.95;24.00;;;;;;;12.36;37.80;101920.72;4962560;28;20053;-73
2022/03/17 09:48:17;;;;;;;27.92;19.42;;;;;;;12.40;37.94;101924.91;4963048;28;20070;-75
2022/03/17 09:50:47;;;;;;;31.00;22.73;;;;;;;12.45;37.91;101926.47;4962011;28;20061;-72
2022/03/17 09:53:14;;;;;;;32.60;21.77;;;;;;;12.40;37.67;101922.25;4962415;28;20051;-73
2022/03/17 09:55:43;;;;;;;35.13;23.98;;;;;;;12.32;37.74;101927.13;4962632;28;20691;-76
2022/03/17 09:58:11;;;;;;;32.67;24.23;;;;;;;12.24;37.84;101921.34;4960958;28;20843;-74
2022/03/17 10:00:52;;;;;;;30.27;24.05;;;;;;;12.31;37.93;101919.25;4962722;28;20138;-74
2022/03/17 10:03:25;;;;;;;33.28;23.23;;;;;;;12.42;37.71;101923.06;4962640;28;20480;-72
2022/03/17 10:05:53;;;;;;;30.60;22.90;;;;;;;12.54;37.36;101920.66;4962505;28;20046;-74
2022/03/17 10:08:23;;;;;;;35.05;21.67;;;;;;;12.52;37.31;101917.25;4963048;28;20138;-74
2022/03/17 10:10:52;;;;;;;36.58;25.60;;;;;;;12.61;36.87;101922.03;4963573;28;20640;-73
2022/03/17 10:13:21;;;;;;;30.52;21.15;;;;;;;12.69;36.25;101913.66;4962226;28;20055;-72
2022/03/17 10:16:05;;;;;;;30.55;20.92;;;;;;;12.74;36.06;101912.47;4962768;28;20448;-72
2022/03/17 10:18:37;;;;;;;31.20;20.08;;;;;;;12.67;36.49;101915.56;4963899;28;20129;-74
2022/03/17 10:21:10;;;;;;;30.13;21.23;;;;;;;12.71;36.40;101920.63;4945768;28;20055;-73
2022/03/17 10:23:46;;;;;;;28.92;19.17;;;;;;;12.96;36.01;101920.13;4964019;28;20415;-74
2022/03/17 10:26:29;;;;;;;35.75;22.15;;;;;;;13.07;35.38;101914.22;4962472;28;20651;-74
2022/03/17 10:29:04;;;;;;;39.70;19.80;;;;;;;13.10;35.54;101908.69;4966467;28;20106;-74
2022/03/17 10:31:31;;;;;;;34.83;20.60;;;;;;;12.94;35.47;101907.84;4983385;28;20054;-72
2022/03/17 10:34:04;;;;;;;25.85;17.65;;;;;;;12.96;35.60;101911.28;4999221;28;20057;-73
2022/03/17 10:36:32;;;;;;;31.83;20.15;;;;;;;13.12;35.32;101911.28;4992299;28;20042;-74
2022/03/17 10:38:59;;;;;;;28.00;20.08;;;;;;;13.34;34.91;101913.59;4985344;28;20080;-73
2022/03/17 10:41:26;;;;;;;29.50;19.50;;;;;;;13.51;34.67;101917.94;4985214;28;20054;-74
2022/03/17 10:43:59;;;;;;;29.25;20.67;;;;;;;13.68;34.55;101914.28;4985392;28;20165;-75
2022/03/17 10:46:27;;;;;;;30.08;20.27;;;;;;;13.81;34.38;101907.31;4985660;28;20050;-74
2022/03/17 10:48:56;;;;;;;31.75;20.50;;;;;;;13.80;34.01;101908.25;4984922;28;20057;-75
2022/03/17 10:51:40;;;;;;;30.92;19.48;;;;;;;13.97;34.17;101915.19;4984738;28;20053;-75
2022/03/17 10:54:09;;;;;;;25.83;17.65;;;;;;;13.96;33.81;101902.88;4986722;28;20116;-74
2022/03/17 10:56:39;;;;;;;31.42;20.10;;;;;;;13.70;33.97;101907.06;4985601;28;20053;-74
2022/03/17 10:59:07;;;;;;;29.42;22.40;;;;;;;13.62;33.80;101910.19;4983987;28;20050;-71
2022/03/17 11:01:42;;;;;;;26.48;17.25;;;;;;;13.76;33.77;101901.41;4984227;28;20051;-74
2022/03/17 11:04:10;;;;;;;30.45;18.95;;;;;;;13.98;33.48;101900.97;4936241;28;20061;-72
2022/03/17 11:06:40;;;;;;;19.95;15.98;;;;;;;13.95;33.34;101909.09;4985893;28;20081;-72
2022/03/17 11:09:09;;;;;;;21.95;16.48;;;;;;;13.76;33.38;101898.75;4983804;28;20159;-73
2022/03/17 11:11:38;;;;;;;23.55;16.20;;;;;;;13.83;33.14;101913.38;4983675;28;20066;-73
2022/03/17 11:14:09;;;;;;;20.45;14.02;;;;;;;14.06;32.53;101906.69;4983356;28;20224;-75
2022/03/17 11:16:40;;;;;;;25.95;16.98;;;;;;;14.01;32.34;101913.19;4983223;28;20133;-75
2022/03/17 11:19:12;;;;;;;22.33;16.38;;;;;;;14.18;32.17;101907.72;4984853;28;20046;-77
2022/03/17 11:21:46;;;;;;;19.13;13.68;;;;;;;14.61;31.77;101907.72;4980899;28;20046;-74
2022/03/17 11:24:20;;;;;;;27.90;19.30;;;;;;;14.96;30.94;101909.94;4983053;28;20150;-73
2022/03/17 11:26:47;;;;;;;24.90;14.68;;;;;;;14.64;31.52;101912.88;4984468;28;20042;-73
2022/03/17 11:29:17;;;;;;;23.17;16.20;;;;;;;14.70;31.45;101908.97;4982485;28;20054;-74
2022/03/17 11:32:01;;;;;;;21.98;15.43;;;;;;;14.90;31.25;101913.00;4983214;28;20062;-74
2022/03/17 11:34:41;;;;;;;27.38;15.40;;;;;;;14.78;31.88;101911.13;4984467;28;20046;-74
2022/03/17 11:37:34;;;;;;;27.90;16.70;;;;;;;14.57;32.16;101914.19;4984330;28;20548;-70